sensor_id;sensor_type;location;lat;lon;timestamp;temperature;humidity
20654;DHT22;21083;50.898;4.902;2022-11-30T00:00:55;7.80;99.90
20654;DHT22;21083;50.898;4.902;2022-11-30T00:03:22;7.80;99.90
20654;DHT22;21083;50.898;4.902;2022-11-30T00:05:50;8.00;99.90
20654;DHT22;21083;50.898;4.902;2022-11-30T00:08:17;8.00;99.90
20654;DHT22;21083;50.898;4.902;2022-11-30T00:10:44;8.00;99.90
20654;DHT22;21083;50.898;4.902;2022-11-30T00:13:12;7.90;99.90
20654;DHT22;21083;50.898;4.902;2022-11-30T00:15:39;7.80;99.90
20654;DHT22;21083;50.898;4.902;2022-11-30T00:18:06;7.80;99.90
20654;DHT22;21083;50.898;4.902;2022-11-30T00:20:33;7.80;99.90
20654;DHT22;21083;50.898;4.902;2022-11-30T00:23:00;7.80;99.90
20654;DHT22;21083;50.898;4.902;2022-11-30T00:25:26;7.90;99.90
20654;DHT22;21083;50.898;4.902;2022-11-30T00:27:53;8.00;99.90
20654;DHT22;21083;50.898;4.902;2022-11-30T00:30:21;8.10;99.90
20654;DHT22;21083;50.898;4.902;2022-11-30T00:32:48;8.20;99.90
20654;DHT22;21083;50.898;4.902;2022-11-30T00:35:15;8.20;99.90
20654;DHT22;21083;50.898;4.902;2022-11-30T00:37:43;8.20;99.90
20654;DHT22;21083;50.898;4.902;2022-11-30T00:40:11;8.30;99.90
20654;DHT22;21083;50.898;4.902;2022-11-30T00:42:38;8.30;99.90
20654;DHT22;21083;50.898;4.902;2022-11-30T00:45:06;8.30;99.90
20654;DHT22;21083;50.898;4.902;2022-11-30T00:47:34;8.30;99.90
20654;DHT22;21083;50.898;4.902;2022-11-30T00:50:01;8.10;99.90
20654;DHT22;21083;50.898;4.902;2022-11-30T00:52:28;8.10;99.90
20654;DHT22;21083;50.898;4.902;2022-11-30T00:54:56;7.80;99.90
20654;DHT22;21083;50.898;4.902;2022-11-30T00:57:22;7.70;99.90
20654;DHT22;21083;50.898;4.902;2022-11-30T00:59:50;7.70;99.90
20654;DHT22;21083;50.898;4.902;2022-11-30T01:02:16;8.00;99.90
20654;DHT22;21083;50.898;4.902;2022-11-30T01:04:45;8.10;99.90
20654;DHT22;21083;50.898;4.902;2022-11-30T01:07:12;8.00;99.90
20654;DHT22;21083;50.898;4.902;2022-11-30T01:09:38;8.00;99.90
20654;DHT22;21083;50.898;4.902;2022-11-30T01:12:05;8.10;99.90
20654;DHT22;21083;50.898;4.902;2022-11-30T01:14:32;8.10;99.90
20654;DHT22;21083;50.898;4.902;2022-11-30T01:16:59;7.90;99.90
20654;DHT22;21083;50.898;4.902;2022-11-30T01:19:26;7.80;99.90
20654;DHT22;21083;50.898;4.902;2022-11-30T01:21:54;8.00;99.90
20654;DHT22;21083;50.898;4.902;2022-11-30T01:24:21;8.10;99.90
20654;DHT22;21083;50.898;4.902;2022-11-30T01:26:48;8.00;99.90
20654;DHT22;21083;50.898;4.902;2022-11-30T01:29:15;8.00;99.90
20654;DHT22;21083;50.898;4.902;2022-11-30T01:31:42;8.10;99.90
20654;DHT22;21083;50.898;4.902;2022-11-30T01:34:08;8.10;99.90
20654;DHT22;21083;50.898;4.902;2022-11-30T01:36:35;7.90;99.90
20654;DHT22;21083;50.898;4.902;2022-11-30T01:39:06;7.90;99.90
20654;DHT22;21083;50.898;4.902;2022-11-30T01:41:33;8.10;99.90
20654;DHT22;21083;50.898;4.902;2022-11-30T01:47:03;7.90;99.90
20654;DHT22;21083;50.898;4.902;2022-11-30T01:49:34;7.80;99.90
20654;DHT22;21083;50.898;4.902;2022-11-30T01:52:05;7.80;99.90
20654;DHT22;21083;50.898;4.902;2022-11-30T01:54:39;7.80;99.90
20654;DHT22;21083;50.898;4.902;2022-11-30T01:57:10;7.60;99.90
20654;DHT22;21083;50.898;4.902;2022-11-30T01:59:38;7.80;99.90
20654;DHT22;21083;50.898;4.902;2022-11-30T02:02:04;7.60;99.90
20654;DHT22;21083;50.898;4.902;2022-11-30T02:04:34;7.60;99.90
20654;DHT22;21083;50.898;4.902;2022-11-30T02:07:04;7.60;99.90
20654;DHT22;21083;50.898;4.902;2022-11-30T02:09:37;7.70;99.90
20654;DHT22;21083;50.898;4.902;2022-11-30T02:12:07;7.70;99.90
20654;DHT22;21083;50.898;4.902;2022-11-30T02:14:44;7.70;99.90
20654;DHT22;21083;50.898;4.902;2022-11-30T02:17:16;7.70;99.90
20654;DHT22;21083;50.898;4.902;2022-11-30T02:20:18;7.60;99.90
20654;DHT22;21083;50.898;4.902;2022-11-30T02:23:02;7.60;99.90
20654;DHT22;21083;50.898;4.902;2022-11-30T02:25:44;7.30;99.90
20654;DHT22;21083;50.898;4.902;2022-11-30T02:28:49;7.40;99.90
20654;DHT22;21083;50.898;4.902;2022-11-30T02:31:24;7.40;99.90
20654;DHT22;21083;50.898;4.902;2022-11-30T02:33:54;7.50;99.90
20654;DHT22;21083;50.898;4.902;2022-11-30T02:36:22;7.30;99.90
20654;DHT22;21083;50.898;4.902;2022-11-30T02:38:50;7.30;99.90
20654;DHT22;21083;50.898;4.902;2022-11-30T02:41:17;7.30;99.90
20654;DHT22;21083;50.898;4.902;2022-11-30T02:43:45;7.40;99.90
20654;DHT22;21083;50.898;4.902;2022-11-30T02:46:17;7.50;99.90
20654;DHT22;21083;50.898;4.902;2022-11-30T02:48:49;7.40;99.90
20654;DHT22;21083;50.898;4.902;2022-11-30T02:51:22;7.50;99.90
20654;DHT22;21083;50.898;4.902;2022-11-30T02:53:51;7.40;99.90
20654;DHT22;21083;50.898;4.902;2022-11-30T02:56:18;7.40;99.90
20654;DHT22;21083;50.898;4.902;2022-11-30T02:58:48;7.30;99.90
20654;DHT22;21083;50.898;4.902;2022-11-30T03:01:15;7.10;99.90
20654;DHT22;21083;50.898;4.902;2022-11-30T03:03:41;7.10;99.90
20654;DHT22;21083;50.898;4.902;2022-11-30T03:06:09;6.90;99.90
20654;DHT22;21083;50.898;4.902;2022-11-30T03:08:36;6.80;99.90
20654;DHT22;21083;50.898;4.902;2022-11-30T03:11:03;6.90;99.90
20654;DHT22;21083;50.898;4.902;2022-11-30T03:13:30;6.90;99.90
20654;DHT22;21083;50.898;4.902;2022-11-30T03:16:05;6.90;99.90
20654;DHT22;21083;50.898;4.902;2022-11-30T03:18:32;6.90;99.90
20654;DHT22;21083;50.898;4.902;2022-11-30T03:20:58;6.90;99.90
20654;DHT22;21083;50.898;4.902;2022-11-30T03:23:25;6.90;99.90
20654;DHT22;21083;50.898;4.902;2022-11-30T03:25:56;7.00;99.90
20654;DHT22;21083;50.898;4.902;2022-11-30T03:28:23;7.10;99.90
20654;DHT22;21083;50.898;4.902;2022-11-30T03:30:51;7.00;99.90
20654;DHT22;21083;50.898;4.902;2022-11-30T03:33:19;7.00;99.90
20654;DHT22;21083;50.898;4.902;2022-11-30T03:35:46;7.10;99.90
20654;DHT22;21083;50.898;4.902;2022-11-30T03:38:13;7.30;99.90
20654;DHT22;21083;50.898;4.902;2022-11-30T03:40:39;7.30;99.90
20654;DHT22;21083;50.898;4.902;2022-11-30T03:43:06;7.40;99.90
20654;DHT22;21083;50.898;4.902;2022-11-30T03:45:33;7.30;99.90
20654;DHT22;21083;50.898;4.902;2022-11-30T03:48:00;7.40;99.90
20654;DHT22;21083;50.898;4.902;2022-11-30T03:50:28;7.40;99.90
20654;DHT22;21083;50.898;4.902;2022-11-30T03:52:55;7.40;99.90
20654;DHT22;21083;50.898;4.902;2022-11-30T03:55:22;7.30;99.90
20654;DHT22;21083;50.898;4.902;2022-11-30T03:57:49;7.10;99.90
20654;DHT22;21083;50.898;4.902;2022-11-30T04:00:17;7.20;99.90
20654;DHT22;21083;50.898;4.902;2022-11-30T04:02:44;7.30;99.90
20654;DHT22;21083;50.898;4.902;2022-11-30T04:05:11;7.30;99.90
20654;DHT22;21083;50.898;4.902;2022-11-30T04:07:40;7.40;99.90
20654;DHT22;21083;50.898;4.902;2022-11-30T04:10:08;7.30;99.90
20654;DHT22;21083;50.898;4.902;2022-11-30T04:12:35;7.40;99.90
20654;DHT22;21083;50.898;4.902;2022-11-30T04:15:02;7.30;99.90
20654;DHT22;21083;50.898;4.902;2022-11-30T04:17:29;7.30;99.90
20654;DHT22;21083;50.898;4.902;2022-11-30T04:19:56;7.40;99.90
20654;DHT22;21083;50.898;4.902;2022-11-30T04:22:23;7.30;99.90
20654;DHT22;21083;50.898;4.902;2022-11-30T04:24:51;7.20;99.90
20654;DHT22;21083;50.898;4.902;2022-11-30T04:27:18;7.30;99.90
20654;DHT22;21083;50.898;4.902;2022-11-30T04:29:45;7.30;99.90
20654;DHT22;21083;50.898;4.902;2022-11-30T04:32:11;7.20;99.90
20654;DHT22;21083;50.898;4.902;2022-11-30T04:34:38;7.10;99.90
20654;DHT22;21083;50.898;4.902;2022-11-30T04:37:05;7.10;99.90
20654;DHT22;21083;50.898;4.902;2022-11-30T04:39:32;7.10;99.90
20654;DHT22;21083;50.898;4.902;2022-11-30T04:42:01;7.10;99.90
20654;DHT22;21083;50.898;4.902;2022-11-30T04:44:28;7.10;99.90
20654;DHT22;21083;50.898;4.902;2022-11-30T04:46:55;7.20;99.90
20654;DHT22;21083;50.898;4.902;2022-11-30T04:49:22;7.40;99.90
20654;DHT22;21083;50.898;4.902;2022-11-30T04:51:48;7.30;99.90
20654;DHT22;21083;50.898;4.902;2022-11-30T04:54:15;7.40;99.90
20654;DHT22;21083;50.898;4.902;2022-11-30T04:56:42;7.20;99.90
20654;DHT22;21083;50.898;4.902;2022-11-30T04:59:10;7.20;99.90
20654;DHT22;21083;50.898;4.902;2022-11-30T05:01:37;7.30;99.90
20654;DHT22;21083;50.898;4.902;2022-11-30T05:04:04;7.40;99.90
20654;DHT22;21083;50.898;4.902;2022-11-30T05:06:31;7.40;99.90
20654;DHT22;21083;50.898;4.902;2022-11-30T05:08:58;7.50;99.90
20654;DHT22;21083;50.898;4.902;2022-11-30T05:11:25;7.50;99.90
20654;DHT22;21083;50.898;4.902;2022-11-30T05:13:51;7.60;99.90
20654;DHT22;21083;50.898;4.902;2022-11-30T05:16:20;7.70;99.90
20654;DHT22;21083;50.898;4.902;2022-11-30T05:18:47;7.70;99.90
20654;DHT22;21083;50.898;4.902;2022-11-30T05:21:13;7.70;99.90
20654;DHT22;21083;50.898;4.902;2022-11-30T05:23:41;7.60;99.90
20654;DHT22;21083;50.898;4.902;2022-11-30T05:26:08;7.60;99.90
20654;DHT22;21083;50.898;4.902;2022-11-30T05:28:35;7.40;99.90
20654;DHT22;21083;50.898;4.902;2022-11-30T05:31:02;7.40;99.90
20654;DHT22;21083;50.898;4.902;2022-11-30T05:33:31;7.30;99.90
20654;DHT22;21083;50.898;4.902;2022-11-30T05:35:58;7.40;99.90
20654;DHT22;21083;50.898;4.902;2022-11-30T05:38:25;7.40;99.90
20654;DHT22;21083;50.898;4.902;2022-11-30T05:40:58;7.30;99.90
20654;DHT22;21083;50.898;4.902;2022-11-30T05:43:25;7.30;99.90
20654;DHT22;21083;50.898;4.902;2022-11-30T05:45:58;7.10;99.90
20654;DHT22;21083;50.898;4.902;2022-11-30T05:48:25;7.20;99.90
20654;DHT22;21083;50.898;4.902;2022-11-30T05:50:54;7.10;99.90
20654;DHT22;21083;50.898;4.902;2022-11-30T05:53:21;7.10;99.90
20654;DHT22;21083;50.898;4.902;2022-11-30T05:55:47;7.20;99.90
20654;DHT22;21083;50.898;4.902;2022-11-30T05:58:14;7.20;99.90
20654;DHT22;21083;50.898;4.902;2022-11-30T06:00:42;7.20;99.90
20654;DHT22;21083;50.898;4.902;2022-11-30T06:03:09;7.00;99.90
20654;DHT22;21083;50.898;4.902;2022-11-30T06:05:35;7.00;99.90
20654;DHT22;21083;50.898;4.902;2022-11-30T06:08:04;7.20;99.90
20654;DHT22;21083;50.898;4.902;2022-11-30T06:10:31;7.20;99.90
20654;DHT22;21083;50.898;4.902;2022-11-30T06:12:58;7.20;99.90
20654;DHT22;21083;50.898;4.902;2022-11-30T06:15:24;7.30;99.90
20654;DHT22;21083;50.898;4.902;2022-11-30T06:17:54;7.30;99.90
20654;DHT22;21083;50.898;4.902;2022-11-30T06:20:21;7.40;99.90
20654;DHT22;21083;50.898;4.902;2022-11-30T06:22:48;7.50;99.90
20654;DHT22;21083;50.898;4.902;2022-11-30T06:25:16;7.40;99.90
20654;DHT22;21083;50.898;4.902;2022-11-30T06:27:43;7.30;99.90
20654;DHT22;21083;50.898;4.902;2022-11-30T06:30:11;7.30;99.90
20654;DHT22;21083;50.898;4.902;2022-11-30T06:32:38;7.20;99.90
20654;DHT22;21083;50.898;4.902;2022-11-30T06:35:05;7.30;99.90
20654;DHT22;21083;50.898;4.902;2022-11-30T06:37:33;7.30;99.90
20654;DHT22;21083;50.898;4.902;2022-11-30T06:40:00;7.40;99.90
20654;DHT22;21083;50.898;4.902;2022-11-30T06:42:30;7.40;99.90
20654;DHT22;21083;50.898;4.902;2022-11-30T06:44:58;7.50;99.90
20654;DHT22;21083;50.898;4.902;2022-11-30T06:47:26;7.50;99.90
20654;DHT22;21083;50.898;4.902;2022-11-30T06:49:53;7.50;99.90
20654;DHT22;21083;50.898;4.902;2022-11-30T06:52:20;7.60;99.90
20654;DHT22;21083;50.898;4.902;2022-11-30T06:54:46;7.60;99.90
20654;DHT22;21083;50.898;4.902;2022-11-30T06:57:13;7.60;99.90
20654;DHT22;21083;50.898;4.902;2022-11-30T06:59:42;7.60;99.90
20654;DHT22;21083;50.898;4.902;2022-11-30T07:02:10;7.60;99.90
20654;DHT22;21083;50.898;4.902;2022-11-30T07:04:37;7.60;99.90
20654;DHT22;21083;50.898;4.902;2022-11-30T07:07:04;7.60;99.90
20654;DHT22;21083;50.898;4.902;2022-11-30T07:09:32;7.60;99.90
20654;DHT22;21083;50.898;4.902;2022-11-30T07:11:59;7.70;99.90
20654;DHT22;21083;50.898;4.902;2022-11-30T07:14:26;7.60;99.90
20654;DHT22;21083;50.898;4.902;2022-11-30T07:16:56;7.70;99.90
20654;DHT22;21083;50.898;4.902;2022-11-30T07:19:23;7.60;99.90
20654;DHT22;21083;50.898;4.902;2022-11-30T07:21:50;7.70;99.90
20654;DHT22;21083;50.898;4.902;2022-11-30T07:24:16;7.70;99.90
20654;DHT22;21083;50.898;4.902;2022-11-30T07:27:01;7.70;99.90
20654;DHT22;21083;50.898;4.902;2022-11-30T07:29:29;7.80;99.90
20654;DHT22;21083;50.898;4.902;2022-11-30T07:31:57;7.70;99.90
20654;DHT22;21083;50.898;4.902;2022-11-30T07:34:25;7.70;99.90
20654;DHT22;21083;50.898;4.902;2022-11-30T07:36:52;7.70;99.90
20654;DHT22;21083;50.898;4.902;2022-11-30T07:39:18;7.70;99.90
20654;DHT22;21083;50.898;4.902;2022-11-30T07:41:45;7.80;99.90
20654;DHT22;21083;50.898;4.902;2022-11-30T07:44:12;7.80;99.90
20654;DHT22;21083;50.898;4.902;2022-11-30T07:46:39;7.80;99.90
20654;DHT22;21083;50.898;4.902;2022-11-30T07:49:08;7.80;99.90
20654;DHT22;21083;50.898;4.902;2022-11-30T07:51:36;7.80;99.90
20654;DHT22;21083;50.898;4.902;2022-11-30T07:54:03;7.80;99.90
20654;DHT22;21083;50.898;4.902;2022-11-30T07:56:30;7.90;99.90
20654;DHT22;21083;50.898;4.902;2022-11-30T07:58:59;7.90;99.90
20654;DHT22;21083;50.898;4.902;2022-11-30T08:01:27;7.80;99.90
20654;DHT22;21083;50.898;4.902;2022-11-30T08:03:55;7.90;99.90
20654;DHT22;21083;50.898;4.902;2022-11-30T08:06:25;7.80;99.90
20654;DHT22;21083;50.898;4.902;2022-11-30T08:08:53;7.80;99.90
20654;DHT22;21083;50.898;4.902;2022-11-30T08:11:23;7.50;99.90
20654;DHT22;21083;50.898;4.902;2022-11-30T08:13:50;7.50;99.90
20654;DHT22;21083;50.898;4.902;2022-11-30T08:16:19;7.60;99.90
20654;DHT22;21083;50.898;4.902;2022-11-30T08:18:46;7.50;99.90
20654;DHT22;21083;50.898;4.902;2022-11-30T08:21:15;7.50;99.90
20654;DHT22;21083;50.898;4.902;2022-11-30T08:23:46;7.40;99.90
20654;DHT22;21083;50.898;4.902;2022-11-30T08:26:15;7.30;99.90
20654;DHT22;21083;50.898;4.902;2022-11-30T08:28:44;7.30;99.90
20654;DHT22;21083;50.898;4.902;2022-11-30T08:31:13;7.20;99.90
20654;DHT22;21083;50.898;4.902;2022-11-30T08:33:40;7.30;99.90
20654;DHT22;21083;50.898;4.902;2022-11-30T08:36:08;7.40;99.90
20654;DHT22;21083;50.898;4.902;2022-11-30T08:38:36;7.40;99.90
20654;DHT22;21083;50.898;4.902;2022-11-30T08:41:05;7.50;99.90
20654;DHT22;21083;50.898;4.902;2022-11-30T08:43:32;7.70;99.90
20654;DHT22;21083;50.898;4.902;2022-11-30T08:46:01;7.70;99.90
20654;DHT22;21083;50.898;4.902;2022-11-30T08:48:29;7.80;99.90
20654;DHT22;21083;50.898;4.902;2022-11-30T08:50:58;7.60;99.90
20654;DHT22;21083;50.898;4.902;2022-11-30T08:53:25;7.60;99.90
20654;DHT22;21083;50.898;4.902;2022-11-30T08:55:56;7.70;99.90
20654;DHT22;21083;50.898;4.902;2022-11-30T08:58:24;7.80;99.90
20654;DHT22;21083;50.898;4.902;2022-11-30T09:00:51;7.70;99.90
20654;DHT22;21083;50.898;4.902;2022-11-30T09:03:18;7.90;99.90
20654;DHT22;21083;50.898;4.902;2022-11-30T09:05:45;7.90;99.90
20654;DHT22;21083;50.898;4.902;2022-11-30T09:08:12;7.90;99.90
20654;DHT22;21083;50.898;4.902;2022-11-30T09:10:39;8.00;99.90
20654;DHT22;21083;50.898;4.902;2022-11-30T09:13:06;8.00;99.90
20654;DHT22;21083;50.898;4.902;2022-11-30T09:15:34;8.00;99.90
20654;DHT22;21083;50.898;4.902;2022-11-30T09:18:01;7.70;99.90
20654;DHT22;21083;50.898;4.902;2022-11-30T09:20:28;7.60;99.90
20654;DHT22;21083;50.898;4.902;2022-11-30T09:22:55;7.50;99.90
20654;DHT22;21083;50.898;4.902;2022-11-30T09:25:24;7.60;99.90
20654;DHT22;21083;50.898;4.902;2022-11-30T09:27:51;7.70;99.90
20654;DHT22;21083;50.898;4.902;2022-11-30T09:30:18;7.80;99.90
20654;DHT22;21083;50.898;4.902;2022-11-30T09:32:46;7.90;99.90
20654;DHT22;21083;50.898;4.902;2022-11-30T09:35:13;8.00;99.90
20654;DHT22;21083;50.898;4.902;2022-11-30T09:37:40;8.00;99.90
20654;DHT22;21083;50.898;4.902;2022-11-30T09:40:08;8.00;99.90
20654;DHT22;21083;50.898;4.902;2022-11-30T09:42:44;8.10;99.90
20654;DHT22;21083;50.898;4.902;2022-11-30T09:45:18;8.10;99.90
20654;DHT22;21083;50.898;4.902;2022-11-30T09:48:10;8.10;99.90
20654;DHT22;21083;50.898;4.902;2022-11-30T09:50:40;8.30;99.90
20654;DHT22;21083;50.898;4.902;2022-11-30T09:53:12;8.30;99.90
20654;DHT22;21083;50.898;4.902;2022-11-30T09:55:41;8.30;99.90
20654;DHT22;21083;50.898;4.902;2022-11-30T09:58:15;8.30;99.90
20654;DHT22;21083;50.898;4.902;2022-11-30T10:00:47;8.20;99.90
20654;DHT22;21083;50.898;4.902;2022-11-30T10:03:17;8.30;99.90
20654;DHT22;21083;50.898;4.902;2022-11-30T10:05:48;8.40;99.90
20654;DHT22;21083;50.898;4.902;2022-11-30T10:08:38;8.30;99.90
20654;DHT22;21083;50.898;4.902;2022-11-30T10:11:27;8.40;99.90
20654;DHT22;21083;50.898;4.902;2022-11-30T10:14:04;8.40;99.90
20654;DHT22;21083;50.898;4.902;2022-11-30T10:16:39;8.20;99.90
20654;DHT22;21083;50.898;4.902;2022-11-30T10:19:22;8.20;99.90
20654;DHT22;21083;50.898;4.902;2022-11-30T10:22:02;8.20;99.90
20654;DHT22;21083;50.898;4.902;2022-11-30T10:24:47;8.00;99.90
20654;DHT22;21083;50.898;4.902;2022-11-30T10:27:17;7.90;99.90
20654;DHT22;21083;50.898;4.902;2022-11-30T10:29:44;7.70;99.90
20654;DHT22;21083;50.898;4.902;2022-11-30T10:32:15;7.80;99.90
20654;DHT22;21083;50.898;4.902;2022-11-30T10:34:46;8.00;99.90
20654;DHT22;21083;50.898;4.902;2022-11-30T10:37:18;8.10;99.90
20654;DHT22;21083;50.898;4.902;2022-11-30T10:39:57;8.30;99.90
20654;DHT22;21083;50.898;4.902;2022-11-30T10:42:30;8.40;99.90
20654;DHT22;21083;50.898;4.902;2022-11-30T10:44:59;8.40;99.90
20654;DHT22;21083;50.898;4.902;2022-11-30T10:47:30;8.40;99.90
20654;DHT22;21083;50.898;4.902;2022-11-30T10:50:03;8.50;99.90
20654;DHT22;21083;50.898;4.902;2022-11-30T10:52:33;8.70;99.90
20654;DHT22;21083;50.898;4.902;2022-11-30T10:55:01;8.80;99.90
20654;DHT22;21083;50.898;4.902;2022-11-30T10:57:30;8.90;99.90
20654;DHT22;21083;50.898;4.902;2022-11-30T10:59:59;9.00;99.90
20654;DHT22;21083;50.898;4.902;2022-11-30T11:02:37;9.00;99.90
20654;DHT22;21083;50.898;4.902;2022-11-30T11:05:14;9.00;99.90
20654;DHT22;21083;50.898;4.902;2022-11-30T11:07:51;9.00;99.90
20654;DHT22;21083;50.898;4.902;2022-11-30T11:10:23;9.00;99.90
20654;DHT22;21083;50.898;4.902;2022-11-30T11:12:51;9.00;99.90
20654;DHT22;21083;50.898;4.902;2022-11-30T11:15:21;9.10;99.90
20654;DHT22;21083;50.898;4.902;2022-11-30T11:17:48;9.10;99.90
20654;DHT22;21083;50.898;4.902;2022-11-30T11:20:33;9.10;99.90
20654;DHT22;21083;50.898;4.902;2022-11-30T11:23:01;9.10;99.90
20654;DHT22;21083;50.898;4.902;2022-11-30T11:25:32;9.10;99.90
20654;DHT22;21083;50.898;4.902;2022-11-30T11:28:04;9.10;99.90
20654;DHT22;21083;50.898;4.902;2022-11-30T11:30:34;9.10;99.90
20654;DHT22;21083;50.898;4.902;2022-11-30T11:33:04;9.10;99.90
20654;DHT22;21083;50.898;4.902;2022-11-30T11:35:45;9.20;99.90
20654;DHT22;21083;50.898;4.902;2022-11-30T11:38:25;9.20;99.90
20654;DHT22;21083;50.898;4.902;2022-11-30T11:41:00;9.30;99.90
20654;DHT22;21083;50.898;4.902;2022-11-30T11:43:29;9.30;99.90
20654;DHT22;21083;50.898;4.902;2022-11-30T11:45:58;9.20;99.90
20654;DHT22;21083;50.898;4.902;2022-11-30T11:48:32;9.20;99.90
20654;DHT22;21083;50.898;4.902;2022-11-30T11:51:03;9.30;99.90
20654;DHT22;21083;50.898;4.902;2022-11-30T11:53:41;10.00;99.90
20654;DHT22;21083;50.898;4.902;2022-11-30T11:56:12;10.40;99.90
20654;DHT22;21083;50.898;4.902;2022-11-30T11:58:44;10.50;99.90
20654;DHT22;21083;50.898;4.902;2022-11-30T12:01:18;10.60;99.90
20654;DHT22;21083;50.898;4.902;2022-11-30T12:03:59;10.70;99.90
20654;DHT22;21083;50.898;4.902;2022-11-30T12:06:30;10.70;99.90
20654;DHT22;21083;50.898;4.902;2022-11-30T12:09:03;10.60;99.90
20654;DHT22;21083;50.898;4.902;2022-11-30T12:11:36;10.40;99.90
20654;DHT22;21083;50.898;4.902;2022-11-30T12:14:09;10.30;99.90
20654;DHT22;21083;50.898;4.902;2022-11-30T12:16:46;10.20;99.90
20654;DHT22;21083;50.898;4.902;2022-11-30T12:19:20;10.20;99.90
20654;DHT22;21083;50.898;4.902;2022-11-30T12:21:56;10.40;99.90
20654;DHT22;21083;50.898;4.902;2022-11-30T12:24:38;11.40;99.90
20654;DHT22;21083;50.898;4.902;2022-11-30T12:27:14;12.30;99.90
20654;DHT22;21083;50.898;4.902;2022-11-30T12:29:50;12.90;99.90
20654;DHT22;21083;50.898;4.902;2022-11-30T12:32:26;13.20;99.90
20654;DHT22;21083;50.898;4.902;2022-11-30T12:35:12;13.10;99.90
20654;DHT22;21083;50.898;4.902;2022-11-30T12:37:50;12.80;99.90
20654;DHT22;21083;50.898;4.902;2022-11-30T12:40:31;12.50;99.90
20654;DHT22;21083;50.898;4.902;2022-11-30T12:43:07;12.20;99.90
20654;DHT22;21083;50.898;4.902;2022-11-30T12:45:39;12.10;99.90
20654;DHT22;21083;50.898;4.902;2022-11-30T12:48:16;11.90;99.90
20654;DHT22;21083;50.898;4.902;2022-11-30T12:51:00;11.70;99.90
20654;DHT22;21083;50.898;4.902;2022-11-30T12:53:35;11.60;99.90
20654;DHT22;21083;50.898;4.902;2022-11-30T12:56:13;12.10;99.90
20654;DHT22;21083;50.898;4.902;2022-11-30T12:58:47;13.40;99.90
20654;DHT22;21083;50.898;4.902;2022-11-30T13:01:33;15.20;99.90
20654;DHT22;21083;50.898;4.902;2022-11-30T13:04:05;16.80;99.90
20654;DHT22;21083;50.898;4.902;2022-11-30T13:06:36;17.30;99.90
20654;DHT22;21083;50.898;4.902;2022-11-30T13:09:09;16.90;99.90
20654;DHT22;21083;50.898;4.902;2022-11-30T13:11:40;16.00;99.90
20654;DHT22;21083;50.898;4.902;2022-11-30T13:14:13;14.50;99.90
20654;DHT22;21083;50.898;4.902;2022-11-30T13:16:42;13.10;99.90
20654;DHT22;21083;50.898;4.902;2022-11-30T13:19:23;12.80;99.90
20654;DHT22;21083;50.898;4.902;2022-11-30T13:21:58;12.30;99.90
20654;DHT22;21083;50.898;4.902;2022-11-30T13:24:35;12.20;99.90
20654;DHT22;21083;50.898;4.902;2022-11-30T13:27:07;12.10;99.90
20654;DHT22;21083;50.898;4.902;2022-11-30T13:29:49;11.70;99.90
20654;DHT22;21083;50.898;4.902;2022-11-30T13:32:17;11.60;99.90
20654;DHT22;21083;50.898;4.902;2022-11-30T13:34:44;11.60;99.90
20654;DHT22;21083;50.898;4.902;2022-11-30T13:37:12;11.50;99.90
20654;DHT22;21083;50.898;4.902;2022-11-30T13:39:48;11.40;99.90
20654;DHT22;21083;50.898;4.902;2022-11-30T13:42:37;11.50;99.90
20654;DHT22;21083;50.898;4.902;2022-11-30T13:45:18;11.40;99.90
20654;DHT22;21083;50.898;4.902;2022-11-30T13:47:52;11.40;99.90
20654;DHT22;21083;50.898;4.902;2022-11-30T13:50:24;11.30;99.90
20654;DHT22;21083;50.898;4.902;2022-11-30T13:53:17;11.10;99.90
20654;DHT22;21083;50.898;4.902;2022-11-30T13:55:55;11.00;99.90
20654;DHT22;21083;50.898;4.902;2022-11-30T13:58:23;11.10;99.90
20654;DHT22;21083;50.898;4.902;2022-11-30T14:01:20;11.10;99.90
20654;DHT22;21083;50.898;4.902;2022-11-30T14:04:28;11.10;99.90
20654;DHT22;21083;50.898;4.902;2022-11-30T14:06:56;11.10;99.90
20654;DHT22;21083;50.898;4.902;2022-11-30T14:09:56;11.00;99.90
20654;DHT22;21083;50.898;4.902;2022-11-30T14:15:51;10.90;99.90
20654;DHT22;21083;50.898;4.902;2022-11-30T14:18:24;10.50;99.90
20654;DHT22;21083;50.898;4.902;2022-11-30T14:20:56;10.10;99.90
20654;DHT22;21083;50.898;4.902;2022-11-30T14:23:28;10.10;99.90
20654;DHT22;21083;50.898;4.902;2022-11-30T14:25:59;10.20;99.90
20654;DHT22;21083;50.898;4.902;2022-11-30T14:28:36;10.30;99.90
20654;DHT22;21083;50.898;4.902;2022-11-30T14:31:09;10.10;99.90
20654;DHT22;21083;50.898;4.902;2022-11-30T14:33:43;10.10;99.90
20654;DHT22;21083;50.898;4.902;2022-11-30T14:36:14;10.20;99.90
20654;DHT22;21083;50.898;4.902;2022-11-30T14:38:41;10.10;99.90
20654;DHT22;21083;50.898;4.902;2022-11-30T14:41:19;10.10;99.90
20654;DHT22;21083;50.898;4.902;2022-11-30T14:44:09;10.10;99.90
20654;DHT22;21083;50.898;4.902;2022-11-30T14:46:38;10.10;99.90
20654;DHT22;21083;50.898;4.902;2022-11-30T14:49:11;10.10;99.90
20654;DHT22;21083;50.898;4.902;2022-11-30T14:51:40;10.00;99.90
20654;DHT22;21083;50.898;4.902;2022-11-30T14:54:15;10.00;99.90
20654;DHT22;21083;50.898;4.902;2022-11-30T14:56:47;10.00;99.90
20654;DHT22;21083;50.898;4.902;2022-11-30T14:59:36;9.90;99.90
20654;DHT22;21083;50.898;4.902;2022-11-30T15:02:16;9.90;99.90
20654;DHT22;21083;50.898;4.902;2022-11-30T15:04:46;9.80;99.90
20654;DHT22;21083;50.898;4.902;2022-11-30T15:07:14;9.80;99.90
20654;DHT22;21083;50.898;4.902;2022-11-30T15:09:43;9.80;99.90
20654;DHT22;21083;50.898;4.902;2022-11-30T15:12:15;9.60;99.90
20654;DHT22;21083;50.898;4.902;2022-11-30T15:15:01;9.60;99.90
20654;DHT22;21083;50.898;4.902;2022-11-30T15:17:30;9.50;99.90
20654;DHT22;21083;50.898;4.902;2022-11-30T15:19:57;9.40;99.90
20654;DHT22;21083;50.898;4.902;2022-11-30T15:22:24;9.40;99.90
20654;DHT22;21083;50.898;4.902;2022-11-30T15:24:51;9.40;99.90
20654;DHT22;21083;50.898;4.902;2022-11-30T15:27:21;9.50;99.90
20654;DHT22;21083;50.898;4.902;2022-11-30T15:29:52;9.40;99.90
20654;DHT22;21083;50.898;4.902;2022-11-30T15:32:23;9.30;99.90
20654;DHT22;21083;50.898;4.902;2022-11-30T15:34:53;9.30;99.90
20654;DHT22;21083;50.898;4.902;2022-11-30T15:37:27;9.20;99.90
20654;DHT22;21083;50.898;4.902;2022-11-30T15:39:56;9.20;99.90
20654;DHT22;21083;50.898;4.902;2022-11-30T15:42:28;9.20;99.90
20654;DHT22;21083;50.898;4.902;2022-11-30T15:45:09;9.10;99.90
20654;DHT22;21083;50.898;4.902;2022-11-30T15:47:37;9.00;99.90
20654;DHT22;21083;50.898;4.902;2022-11-30T15:50:37;8.90;99.90
20654;DHT22;21083;50.898;4.902;2022-11-30T15:53:20;8.90;99.90
20654;DHT22;21083;50.898;4.902;2022-11-30T15:55:48;9.00;99.90
20654;DHT22;21083;50.898;4.902;2022-11-30T15:58:30;8.90;99.90
20654;DHT22;21083;50.898;4.902;2022-11-30T16:01:00;8.90;99.90
20654;DHT22;21083;50.898;4.902;2022-11-30T16:03:29;8.90;99.90
20654;DHT22;21083;50.898;4.902;2022-11-30T16:05:59;9.00;99.90
20654;DHT22;21083;50.898;4.902;2022-11-30T16:08:26;9.10;99.90
20654;DHT22;21083;50.898;4.902;2022-11-30T16:10:53;9.10;99.90